sensor_id;sensor_type;location;lat;lon;timestamp;P1;durP1;ratioP1;P2;durP2;ratioP2
55146;SDS011;41039;49.830;23.988;2022-10-04T00:01:43;7.63;;;3.92;;
55146;SDS011;41039;49.830;23.988;2022-10-04T00:04:11;4.55;;;3.00;;
55146;SDS011;41039;49.830;23.988;2022-10-04T00:06:42;5.22;;;3.42;;
55146;SDS011;41039;49.830;23.988;2022-10-04T00:09:17;5.65;;;3.20;;
55146;SDS011;41039;49.830;23.988;2022-10-04T00:11:44;5.20;;;2.97;;
55146;SDS011;41039;49.830;23.988;2022-10-04T00:14:24;6.25;;;3.40;;
55146;SDS011;41039;49.830;23.988;2022-10-04T00:16:52;5.40;;;3.47;;
55146;SDS011;41039;49.830;23.988;2022-10-04T00:32:22;7.45;;;3.78;;
55146;SDS011;41039;49.830;23.988;2022-10-04T00:37:18;6.25;;;3.42;;
55146;SDS011;41039;49.830;23.988;2022-10-04T00:39:44;4.33;;;3.20;;
55146;SDS011;41039;49.830;23.988;2022-10-04T00:47:02;6.55;;;3.83;;
55146;SDS011;41039;49.830;23.988;2022-10-04T00:49:37;6.22;;;3.55;;
55146;SDS011;41039;49.830;23.988;2022-10-04T00:52:11;8.13;;;3.58;;
55146;SDS011;41039;49.830;23.988;2022-10-04T00:54:38;5.50;;;3.60;;
55146;SDS011;41039;49.830;23.988;2022-10-04T00:57:12;6.38;;;3.85;;
55146;SDS011;41039;49.830;23.988;2022-10-04T00:59:40;7.85;;;4.53;;
55146;SDS011;41039;49.830;23.988;2022-10-04T01:04:40;4.95;;;3.30;;
55146;SDS011;41039;49.830;23.988;2022-10-04T01:07:07;6.18;;;4.00;;
55146;SDS011;41039;49.830;23.988;2022-10-04T01:09:35;6.25;;;3.53;;
55146;SDS011;41039;49.830;23.988;2022-10-04T01:12:03;6.20;;;4.38;;
55146;SDS011;41039;49.830;23.988;2022-10-04T01:17:15;7.80;;;4.53;;
55146;SDS011;41039;49.830;23.988;2022-10-04T01:19:48;10.50;;;4.47;;
55146;SDS011;41039;49.830;23.988;2022-10-04T01:22:28;6.03;;;4.30;;
55146;SDS011;41039;49.830;23.988;2022-10-04T01:24:55;6.40;;;4.20;;
55146;SDS011;41039;49.830;23.988;2022-10-04T01:27:31;6.72;;;4.57;;
55146;SDS011;41039;49.830;23.988;2022-10-04T01:29:57;7.35;;;4.47;;
55146;SDS011;41039;49.830;23.988;2022-10-04T01:32:23;8.60;;;5.80;;
55146;SDS011;41039;49.830;23.988;2022-10-04T01:34:48;8.13;;;5.35;;
55146;SDS011;41039;49.830;23.988;2022-10-04T01:37:13;11.75;;;5.95;;
55146;SDS011;41039;49.830;23.988;2022-10-04T01:39:38;8.70;;;5.38;;
55146;SDS011;41039;49.830;23.988;2022-10-04T01:44:37;13.70;;;7.30;;
55146;SDS011;41039;49.830;23.988;2022-10-04T01:47:05;12.73;;;7.35;;
55146;SDS011;41039;49.830;23.988;2022-10-04T01:49:32;8.70;;;6.05;;
55146;SDS011;41039;49.830;23.988;2022-10-04T01:54:31;8.07;;;5.97;;
55146;SDS011;41039;49.830;23.988;2022-10-04T01:59:26;11.15;;;7.57;;
55146;SDS011;41039;49.830;23.988;2022-10-04T02:01:54;11.63;;;7.03;;
55146;SDS011;41039;49.830;23.988;2022-10-04T02:04:22;10.80;;;7.45;;
55146;SDS011;41039;49.830;23.988;2022-10-04T02:06:51;10.48;;;7.35;;
55146;SDS011;41039;49.830;23.988;2022-10-04T02:09:19;9.68;;;6.03;;
55146;SDS011;41039;49.830;23.988;2022-10-04T02:11:46;7.85;;;6.20;;
55146;SDS011;41039;49.830;23.988;2022-10-04T02:14:16;9.57;;;6.43;;
55146;SDS011;41039;49.830;23.988;2022-10-04T02:16:42;10.88;;;6.78;;
55146;SDS011;41039;49.830;23.988;2022-10-04T02:19:09;8.52;;;6.35;;
55146;SDS011;41039;49.830;23.988;2022-10-04T02:21:35;8.65;;;6.53;;
55146;SDS011;41039;49.830;23.988;2022-10-04T02:24:00;8.60;;;6.47;;
55146;SDS011;41039;49.830;23.988;2022-10-04T02:26:26;9.02;;;6.55;;
55146;SDS011;41039;49.830;23.988;2022-10-04T02:28:51;11.20;;;6.78;;
55146;SDS011;41039;49.830;23.988;2022-10-04T02:31:18;9.70;;;6.78;;
55146;SDS011;41039;49.830;23.988;2022-10-04T02:34:05;9.85;;;7.35;;
55146;SDS011;41039;49.830;23.988;2022-10-04T02:36:30;11.35;;;7.20;;
55146;SDS011;41039;49.830;23.988;2022-10-04T02:39:01;10.55;;;7.22;;
55146;SDS011;41039;49.830;23.988;2022-10-04T02:41:33;8.98;;;6.97;;
55146;SDS011;41039;49.830;23.988;2022-10-04T02:46:34;8.70;;;6.25;;
55146;SDS011;41039;49.830;23.988;2022-10-04T02:49:04;8.18;;;6.68;;
55146;SDS011;41039;49.830;23.988;2022-10-04T02:51:37;9.88;;;7.70;;
55146;SDS011;41039;49.830;23.988;2022-10-04T02:54:16;8.52;;;6.82;;
55146;SDS011;41039;49.830;23.988;2022-10-04T02:56:44;10.32;;;6.55;;
55146;SDS011;41039;49.830;23.988;2022-10-04T02:59:14;9.73;;;7.03;;
55146;SDS011;41039;49.830;23.988;2022-10-04T03:04:17;9.38;;;6.97;;
55146;SDS011;41039;49.830;23.988;2022-10-04T03:06:45;9.73;;;6.53;;
55146;SDS011;41039;49.830;23.988;2022-10-04T03:09:10;7.63;;;5.70;;
55146;SDS011;41039;49.830;23.988;2022-10-04T03:11:36;9.23;;;6.55;;
55146;SDS011;41039;49.830;23.988;2022-10-04T03:14:05;7.15;;;6.18;;
55146;SDS011;41039;49.830;23.988;2022-10-04T03:16:35;9.20;;;6.30;;
55146;SDS011;41039;49.830;23.988;2022-10-04T03:19:02;8.05;;;5.93;;
55146;SDS011;41039;49.830;23.988;2022-10-04T03:21:28;8.98;;;6.65;;
55146;SDS011;41039;49.830;23.988;2022-10-04T03:23:55;7.10;;;5.65;;
55146;SDS011;41039;49.830;23.988;2022-10-04T03:28:55;10.80;;;6.18;;
55146;SDS011;41039;49.830;23.988;2022-10-04T03:31:21;9.32;;;5.90;;
55146;SDS011;41039;49.830;23.988;2022-10-04T03:33:47;7.80;;;5.90;;
55146;SDS011;41039;49.830;23.988;2022-10-04T03:36:13;8.88;;;6.40;;
55146;SDS011;41039;49.830;23.988;2022-10-04T03:38:40;8.50;;;6.32;;
55146;SDS011;41039;49.830;23.988;2022-10-04T03:41:06;8.57;;;5.95;;
55146;SDS011;41039;49.830;23.988;2022-10-04T03:43:33;6.68;;;5.30;;
55146;SDS011;41039;49.830;23.988;2022-10-04T03:46:02;8.15;;;6.07;;
55146;SDS011;41039;49.830;23.988;2022-10-04T03:50:57;10.70;;;6.07;;
55146;SDS011;41039;49.830;23.988;2022-10-04T03:53:25;11.60;;;6.38;;
55146;SDS011;41039;49.830;23.988;2022-10-04T03:55:51;14.38;;;7.45;;
55146;SDS011;41039;49.830;23.988;2022-10-04T03:58:17;13.90;;;7.82;;
55146;SDS011;41039;49.830;23.988;2022-10-04T04:01:03;14.93;;;8.40;;
55146;SDS011;41039;49.830;23.988;2022-10-04T04:03:31;18.77;;;7.88;;
55146;SDS011;41039;49.830;23.988;2022-10-04T04:06:01;11.30;;;7.18;;
55146;SDS011;41039;49.830;23.988;2022-10-04T04:08:32;14.13;;;7.38;;
55146;SDS011;41039;49.830;23.988;2022-10-04T04:10:58;9.93;;;6.15;;
55146;SDS011;41039;49.830;23.988;2022-10-04T04:15:59;10.65;;;6.13;;
55146;SDS011;41039;49.830;23.988;2022-10-04T04:18:26;10.70;;;6.88;;
55146;SDS011;41039;49.830;23.988;2022-10-04T04:20:52;8.77;;;5.30;;
55146;SDS011;41039;49.830;23.988;2022-10-04T04:23:25;9.20;;;5.35;;
55146;SDS011;41039;49.830;23.988;2022-10-04T04:25:55;8.20;;;4.53;;
55146;SDS011;41039;49.830;23.988;2022-10-04T04:28:26;10.32;;;4.75;;
55146;SDS011;41039;49.830;23.988;2022-10-04T04:31:07;8.25;;;4.65;;
55146;SDS011;41039;49.830;23.988;2022-10-04T04:33:42;8.15;;;5.10;;
55146;SDS011;41039;49.830;23.988;2022-10-04T04:36:10;7.65;;;4.43;;
55146;SDS011;41039;49.830;23.988;2022-10-04T04:38:35;10.02;;;5.30;;
55146;SDS011;41039;49.830;23.988;2022-10-04T04:41:21;6.57;;;4.47;;
55146;SDS011;41039;49.830;23.988;2022-10-04T04:43:47;8.77;;;4.97;;
55146;SDS011;41039;49.830;23.988;2022-10-04T04:46:12;6.95;;;4.40;;
55146;SDS011;41039;49.830;23.988;2022-10-04T04:48:37;7.07;;;3.90;;
55146;SDS011;41039;49.830;23.988;2022-10-04T04:51:03;8.55;;;4.63;;
55146;SDS011;41039;49.830;23.988;2022-10-04T04:53:28;10.73;;;4.32;;
55146;SDS011;41039;49.830;23.988;2022-10-04T04:55:58;7.40;;;4.07;;
55146;SDS011;41039;49.830;23.988;2022-10-04T04:58:29;5.28;;;3.40;;
55146;SDS011;41039;49.830;23.988;2022-10-04T05:03:28;8.30;;;4.55;;
55146;SDS011;41039;49.830;23.988;2022-10-04T05:05:55;6.93;;;3.90;;
55146;SDS011;41039;49.830;23.988;2022-10-04T05:08:23;9.07;;;4.15;;
55146;SDS011;41039;49.830;23.988;2022-10-04T05:13:19;9.15;;;4.65;;
55146;SDS011;41039;49.830;23.988;2022-10-04T05:15:44;8.63;;;3.88;;
55146;SDS011;41039;49.830;23.988;2022-10-04T05:20:52;6.82;;;4.03;;
55146;SDS011;41039;49.830;23.988;2022-10-04T05:23:18;7.63;;;4.25;;
55146;SDS011;41039;49.830;23.988;2022-10-04T05:25:43;8.10;;;4.15;;
55146;SDS011;41039;49.830;23.988;2022-10-04T05:28:09;7.30;;;4.35;;
55146;SDS011;41039;49.830;23.988;2022-10-04T05:30:38;7.43;;;4.50;;
55146;SDS011;41039;49.830;23.988;2022-10-04T05:33:08;8.13;;;4.00;;
55146;SDS011;41039;49.830;23.988;2022-10-04T05:41:48;11.27;;;4.45;;
55146;SDS011;41039;49.830;23.988;2022-10-04T05:47:04;10.95;;;4.47;;
55146;SDS011;41039;49.830;23.988;2022-10-04T05:49:40;10.38;;;3.92;;
55146;SDS011;41039;49.830;23.988;2022-10-04T05:52:13;7.60;;;4.28;;
55146;SDS011;41039;49.830;23.988;2022-10-04T05:54:39;6.20;;;3.55;;
55146;SDS011;41039;49.830;23.988;2022-10-04T05:57:24;9.77;;;3.72;;
55146;SDS011;41039;49.830;23.988;2022-10-04T06:08:07;5.67;;;3.83;;
55146;SDS011;41039;49.830;23.988;2022-10-04T06:11:20;6.25;;;4.00;;
55146;SDS011;41039;49.830;23.988;2022-10-04T06:21:12;6.25;;;3.88;;
55146;SDS011;41039;49.830;23.988;2022-10-04T06:24:24;9.98;;;4.18;;
55146;SDS011;41039;49.830;23.988;2022-10-04T06:26:48;7.78;;;4.63;;
55146;SDS011;41039;49.830;23.988;2022-10-04T06:29:17;6.03;;;3.72;;
55146;SDS011;41039;49.830;23.988;2022-10-04T06:36:57;6.97;;;3.72;;
55146;SDS011;41039;49.830;23.988;2022-10-04T06:59:49;5.95;;;4.00;;
55146;SDS011;41039;49.830;23.988;2022-10-04T07:02:20;9.40;;;5.20;;
55146;SDS011;41039;49.830;23.988;2022-10-04T07:04:55;7.20;;;3.90;;
55146;SDS011;41039;49.830;23.988;2022-10-04T07:07:29;5.97;;;3.42;;
55146;SDS011;41039;49.830;23.988;2022-10-04T07:10:20;7.82;;;3.47;;
55146;SDS011;41039;49.830;23.988;2022-10-04T07:12:49;7.40;;;3.65;;
55146;SDS011;41039;49.830;23.988;2022-10-04T07:15:18;6.28;;;3.58;;
55146;SDS011;41039;49.830;23.988;2022-10-04T07:17:45;5.30;;;3.10;;
55146;SDS011;41039;49.830;23.988;2022-10-04T07:20:22;8.43;;;3.88;;
55146;SDS011;41039;49.830;23.988;2022-10-04T07:23:05;9.48;;;4.03;;
55146;SDS011;41039;49.830;23.988;2022-10-04T07:25:35;9.67;;;4.27;;
55146;SDS011;41039;49.830;23.988;2022-10-04T07:31:10;5.25;;;3.33;;
55146;SDS011;41039;49.830;23.988;2022-10-04T07:33:42;4.95;;;3.55;;
55146;SDS011;41039;49.830;23.988;2022-10-04T07:36:09;6.28;;;3.50;;
55146;SDS011;41039;49.830;23.988;2022-10-04T07:38:36;6.45;;;3.58;;
55146;SDS011;41039;49.830;23.988;2022-10-04T07:43:33;7.28;;;3.78;;
55146;SDS011;41039;49.830;23.988;2022-10-04T07:46:03;5.13;;;3.22;;
55146;SDS011;41039;49.830;23.988;2022-10-04T07:48:30;6.68;;;3.72;;
55146;SDS011;41039;49.830;23.988;2022-10-04T07:53:22;7.10;;;3.35;;
55146;SDS011;41039;49.830;23.988;2022-10-04T08:01:06;6.13;;;3.08;;
55146;SDS011;41039;49.830;23.988;2022-10-04T08:11:17;8.63;;;3.90;;
55146;SDS011;41039;49.830;23.988;2022-10-04T08:21:34;5.00;;;2.95;;
55146;SDS011;41039;49.830;23.988;2022-10-04T08:32:04;10.98;;;3.10;;
55146;SDS011;41039;49.830;23.988;2022-10-04T08:42:17;6.90;;;3.38;;
55146;SDS011;41039;49.830;23.988;2022-10-04T08:56:04;4.80;;;2.75;;
55146;SDS011;41039;49.830;23.988;2022-10-04T09:00:59;6.90;;;3.00;;
55146;SDS011;41039;49.830;23.988;2022-10-04T09:16:48;5.80;;;2.60;;
55146;SDS011;41039;49.830;23.988;2022-10-04T09:19:35;6.07;;;2.60;;
55146;SDS011;41039;49.830;23.988;2022-10-04T09:24:37;5.35;;;2.40;;
55146;SDS011;41039;49.830;23.988;2022-10-04T09:29:56;6.75;;;3.58;;
55146;SDS011;41039;49.830;23.988;2022-10-04T09:37:31;4.93;;;3.15;;
55146;SDS011;41039;49.830;23.988;2022-10-04T09:53:28;6.47;;;3.20;;
55146;SDS011;41039;49.830;23.988;2022-10-04T10:04:07;4.97;;;2.67;;
55146;SDS011;41039;49.830;23.988;2022-10-04T10:22:58;4.68;;;2.50;;
55146;SDS011;41039;49.830;23.988;2022-10-04T10:25:36;5.38;;;2.30;;
55146;SDS011;41039;49.830;23.988;2022-10-04T10:38:50;5.25;;;2.10;;
55146;SDS011;41039;49.830;23.988;2022-10-04T10:43:52;3.10;;;1.80;;
55146;SDS011;41039;49.830;23.988;2022-10-04T10:49:36;3.67;;;2.10;;
55146;SDS011;41039;49.830;23.988;2022-10-04T11:07:54;3.85;;;1.98;;
55146;SDS011;41039;49.830;23.988;2022-10-04T11:10:37;5.63;;;2.08;;
55146;SDS011;41039;49.830;23.988;2022-10-04T11:15:37;4.27;;;2.87;;
55146;SDS011;41039;49.830;23.988;2022-10-04T11:26:23;3.60;;;2.00;;
55146;SDS011;41039;49.830;23.988;2022-10-04T11:29:01;6.07;;;2.08;;
55146;SDS011;41039;49.830;23.988;2022-10-04T11:31:37;4.88;;;2.20;;
55146;SDS011;41039;49.830;23.988;2022-10-04T11:41:49;2.83;;;1.60;;
55146;SDS011;41039;49.830;23.988;2022-10-04T11:46:47;3.93;;;2.07;;
55146;SDS011;41039;49.830;23.988;2022-10-04T11:57:33;3.83;;;1.83;;
55146;SDS011;41039;49.830;23.988;2022-10-04T12:00:10;5.28;;;2.10;;
55146;SDS011;41039;49.830;23.988;2022-10-04T12:07:52;5.75;;;2.10;;
55146;SDS011;41039;49.830;23.988;2022-10-04T12:10:23;5.95;;;2.10;;
55146;SDS011;41039;49.830;23.988;2022-10-04T12:31:24;4.28;;;2.08;;
55146;SDS011;41039;49.830;23.988;2022-10-04T12:36:28;8.05;;;2.50;;
55146;SDS011;41039;49.830;23.988;2022-10-04T12:52:40;6.30;;;2.22;;
55146;SDS011;41039;49.830;23.988;2022-10-04T12:57:54;4.10;;;2.42;;
55146;SDS011;41039;49.830;23.988;2022-10-04T13:00:24;6.80;;;4.00;;
55146;SDS011;41039;49.830;23.988;2022-10-04T13:05:23;3.72;;;2.22;;
55146;SDS011;41039;49.830;23.988;2022-10-04T13:10:41;6.57;;;2.80;;
55146;SDS011;41039;49.830;23.988;2022-10-04T13:15:57;4.13;;;2.40;;
55146;SDS011;41039;49.830;23.988;2022-10-04T13:21:10;4.10;;;2.00;;
55146;SDS011;41039;49.830;23.988;2022-10-04T13:36:59;4.38;;;2.58;;
55146;SDS011;41039;49.830;23.988;2022-10-04T13:39:29;3.95;;;2.30;;
55146;SDS011;41039;49.830;23.988;2022-10-04T13:49:53;4.30;;;2.50;;
55146;SDS011;41039;49.830;23.988;2022-10-04T13:55:26;3.40;;;2.17;;
55146;SDS011;41039;49.830;23.988;2022-10-04T13:58:34;4.30;;;2.38;;
55146;SDS011;41039;49.830;23.988;2022-10-04T14:01:26;4.47;;;2.78;;
55146;SDS011;41039;49.830;23.988;2022-10-04T14:09:20;4.67;;;2.00;;
55146;SDS011;41039;49.830;23.988;2022-10-04T14:11:54;4.88;;;2.83;;
55146;SDS011;41039;49.830;23.988;2022-10-04T14:14:30;6.43;;;3.15;;
55146;SDS011;41039;49.830;23.988;2022-10-04T14:33:03;8.23;;;3.50;;
55146;SDS011;41039;49.830;23.988;2022-10-04T15:10:56;6.03;;;2.67;;
55146;SDS011;41039;49.830;23.988;2022-10-04T15:24:26;8.90;;;4.80;;
55146;SDS011;41039;49.830;23.988;2022-10-04T15:29:30;4.55;;;2.83;;
55146;SDS011;41039;49.830;23.988;2022-10-04T15:37:25;7.35;;;3.53;;
55146;SDS011;41039;49.830;23.988;2022-10-04T15:50:23;7.95;;;3.53;;
55146;SDS011;41039;49.830;23.988;2022-10-04T16:00:27;5.80;;;3.20;;
55146;SDS011;41039;49.830;23.988;2022-10-04T16:15:39;9.85;;;4.20;;
55146;SDS011;41039;49.830;23.988;2022-10-04T16:18:10;6.75;;;3.60;;
55146;SDS011;41039;49.830;23.988;2022-10-04T16:23:21;8.13;;;4.10;;
55146;SDS011;41039;49.830;23.988;2022-10-04T16:25:48;7.85;;;5.32;;
55146;SDS011;41039;49.830;23.988;2022-10-04T16:33:36;6.07;;;3.90;;
55146;SDS011;41039;49.830;23.988;2022-10-04T16:38:33;7.57;;;4.95;;
55146;SDS011;41039;49.830;23.988;2022-10-04T16:41:07;11.43;;;4.30;;
55146;SDS011;41039;49.830;23.988;2022-10-04T16:43:33;10.15;;;4.30;;
55146;SDS011;41039;49.830;23.988;2022-10-04T16:46:16;8.40;;;5.05;;
55146;SDS011;41039;49.830;23.988;2022-10-04T16:51:23;7.32;;;4.80;;
55146;SDS011;41039;49.830;23.988;2022-10-04T16:54:13;10.57;;;5.55;;
55146;SDS011;41039;49.830;23.988;2022-10-04T17:04:52;16.48;;;7.80;;
55146;SDS011;41039;49.830;23.988;2022-10-04T17:12:50;14.30;;;6.50;;
55146;SDS011;41039;49.830;23.988;2022-10-04T17:15:30;15.82;;;7.30;;
55146;SDS011;41039;49.830;23.988;2022-10-04T17:20:44;20.33;;;9.53;;
55146;SDS011;41039;49.830;23.988;2022-10-04T17:28:27;27.88;;;20.60;;
55146;SDS011;41039;49.830;23.988;2022-10-04T17:31:07;20.23;;;11.20;;
55146;SDS011;41039;49.830;23.988;2022-10-04T17:39:13;20.60;;;12.00;;
55146;SDS011;41039;49.830;23.988;2022-10-04T17:49:18;18.50;;;10.63;;
55146;SDS011;41039;49.830;23.988;2022-10-04T17:52:10;20.13;;;10.70;;
55146;SDS011;41039;49.830;23.988;2022-10-04T17:54:57;19.30;;;10.95;;
55146;SDS011;41039;49.830;23.988;2022-10-04T17:58:15;16.35;;;10.45;;
55146;SDS011;41039;49.830;23.988;2022-10-04T18:03:18;11.70;;;7.78;;
55146;SDS011;41039;49.830;23.988;2022-10-04T18:10:38;15.13;;;9.35;;
55146;SDS011;41039;49.830;23.988;2022-10-04T18:13:16;16.42;;;9.90;;
55146;SDS011;41039;49.830;23.988;2022-10-04T18:15:56;12.50;;;8.07;;
55146;SDS011;41039;49.830;23.988;2022-10-04T18:18:24;11.75;;;8.07;;
55146;SDS011;41039;49.830;23.988;2022-10-04T18:21:01;12.88;;;8.35;;
55146;SDS011;41039;49.830;23.988;2022-10-04T18:23:29;15.57;;;9.13;;
55146;SDS011;41039;49.830;23.988;2022-10-04T18:25:59;20.60;;;10.82;;
55146;SDS011;41039;49.830;23.988;2022-10-04T18:28:25;21.77;;;10.15;;
55146;SDS011;41039;49.830;23.988;2022-10-04T18:30:52;17.15;;;9.73;;
55146;SDS011;41039;49.830;23.988;2022-10-04T18:33:22;18.00;;;9.50;;
55146;SDS011;41039;49.830;23.988;2022-10-04T18:35:52;16.20;;;9.65;;
55146;SDS011;41039;49.830;23.988;2022-10-04T18:38:23;15.48;;;8.10;;
55146;SDS011;41039;49.830;23.988;2022-10-04T18:40:56;15.93;;;8.55;;
55146;SDS011;41039;49.830;23.988;2022-10-04T18:46:01;17.20;;;8.50;;
55146;SDS011;41039;49.830;23.988;2022-10-04T18:54:00;12.05;;;6.85;;
55146;SDS011;41039;49.830;23.988;2022-10-04T18:56:30;11.75;;;6.07;;
55146;SDS011;41039;49.830;23.988;2022-10-04T19:04:52;11.55;;;6.03;;
55146;SDS011;41039;49.830;23.988;2022-10-04T19:07:34;9.73;;;6.53;;
55146;SDS011;41039;49.830;23.988;2022-10-04T19:10:05;13.95;;;6.00;;
55146;SDS011;41039;49.830;23.988;2022-10-04T19:12:37;9.98;;;4.97;;
55146;SDS011;41039;49.830;23.988;2022-10-04T19:15:09;7.28;;;5.13;;
55146;SDS011;41039;49.830;23.988;2022-10-04T19:17:45;9.80;;;5.57;;
55146;SDS011;41039;49.830;23.988;2022-10-04T19:20:17;9.25;;;6.57;;
55146;SDS011;41039;49.830;23.988;2022-10-04T19:22:48;9.65;;;5.53;;
55146;SDS011;41039;49.830;23.988;2022-10-04T19:27:49;9.02;;;5.78;;
55146;SDS011;41039;49.830;23.988;2022-10-04T19:30:38;10.73;;;5.70;;
55146;SDS011;41039;49.830;23.988;2022-10-04T19:33:11;8.10;;;5.28;;
55146;SDS011;41039;49.830;23.988;2022-10-04T19:36:03;9.23;;;5.15;;
55146;SDS011;41039;49.830;23.988;2022-10-04T19:41:02;7.65;;;5.47;;
55146;SDS011;41039;49.830;23.988;2022-10-04T19:46:07;10.85;;;6.22;;
55146;SDS011;41039;49.830;23.988;2022-10-04T19:48:48;11.32;;;6.28;;
55146;SDS011;41039;49.830;23.988;2022-10-04T19:51:27;8.68;;;6.13;;
55146;SDS011;41039;49.830;23.988;2022-10-04T19:54:20;12.23;;;6.05;;
55146;SDS011;41039;49.830;23.988;2022-10-04T19:56:45;12.30;;;6.50;;
55146;SDS011;41039;49.830;23.988;2022-10-04T19:59:14;10.38;;;6.43;;
55146;SDS011;41039;49.830;23.988;2022-10-04T20:01:41;10.70;;;6.82;;
55146;SDS011;41039;49.830;23.988;2022-10-04T20:04:13;12.82;;;6.35;;
55146;SDS011;41039;49.830;23.988;2022-10-04T20:06:58;11.15;;;6.35;;
55146;SDS011;41039;49.830;23.988;2022-10-04T20:09:29;11.75;;;6.60;;
55146;SDS011;41039;49.830;23.988;2022-10-04T20:11:57;8.90;;;6.10;;
55146;SDS011;41039;49.830;23.988;2022-10-04T20:21:51;8.20;;;6.00;;
55146;SDS011;41039;49.830;23.988;2022-10-04T20:24:17;10.02;;;6.90;;
55146;SDS011;41039;49.830;23.988;2022-10-04T20:34:51;11.43;;;6.85;;
55146;SDS011;41039;49.830;23.988;2022-10-04T20:37:16;11.30;;;6.53;;
55146;SDS011;41039;49.830;23.988;2022-10-04T20:49:43;16.33;;;7.10;;
55146;SDS011;41039;49.830;23.988;2022-10-04T20:52:13;11.85;;;7.57;;
55146;SDS011;41039;49.830;23.988;2022-10-04T20:54:38;14.23;;;7.53;;
55146;SDS011;41039;49.830;23.988;2022-10-04T20:57:04;11.65;;;7.07;;
55146;SDS011;41039;49.830;23.988;2022-10-04T20:59:29;10.13;;;6.72;;
55146;SDS011;41039;49.830;23.988;2022-10-04T21:02:01;12.05;;;6.90;;
55146;SDS011;41039;49.830;23.988;2022-10-04T21:04:29;15.85;;;7.45;;
55146;SDS011;41039;49.830;23.988;2022-10-04T21:06:57;10.48;;;7.40;;
55146;SDS011;41039;49.830;23.988;2022-10-04T21:09:23;10.35;;;6.68;;
55146;SDS011;41039;49.830;23.988;2022-10-04T21:11:49;11.75;;;7.05;;
55146;SDS011;41039;49.830;23.988;2022-10-04T21:14:24;10.65;;;6.57;;
55146;SDS011;41039;49.830;23.988;2022-10-04T21:16:51;16.92;;;7.35;;
55146;SDS011;41039;49.830;23.988;2022-10-04T21:22:01;11.32;;;7.30;;
55146;SDS011;41039;49.830;23.988;2022-10-04T21:24:36;11.70;;;7.30;;
55146;SDS011;41039;49.830;23.988;2022-10-04T21:27:03;10.52;;;7.15;;
55146;SDS011;41039;49.830;23.988;2022-10-04T21:29:29;10.88;;;6.82;;
55146;SDS011;41039;49.830;23.988;2022-10-04T21:31:55;9.82;;;6.20;;
55146;SDS011;41039;49.830;23.988;2022-10-04T21:34:20;12.70;;;7.22;;
55146;SDS011;41039;49.830;23.988;2022-10-04T21:36:46;9.73;;;6.93;;
55146;SDS011;41039;49.830;23.988;2022-10-04T21:39:11;12.30;;;7.55;;
55146;SDS011;41039;49.830;23.988;2022-10-04T21:41:36;10.57;;;6.35;;
55146;SDS011;41039;49.830;23.988;2022-10-04T21:44:01;10.10;;;6.75;;
55146;SDS011;41039;49.830;23.988;2022-10-04T21:46:26;11.70;;;6.75;;
55146;SDS011;41039;49.830;23.988;2022-10-04T21:48:52;12.57;;;7.75;;
55146;SDS011;41039;49.830;23.988;2022-10-04T21:51:17;11.65;;;6.68;;
55146;SDS011;41039;49.830;23.988;2022-10-04T21:53:42;12.77;;;7.00;;
55146;SDS011;41039;49.830;23.988;2022-10-04T21:56:07;10.60;;;7.18;;
55146;SDS011;41039;49.830;23.988;2022-10-04T21:58:33;13.25;;;7.40;;
55146;SDS011;41039;49.830;23.988;2022-10-04T22:00:58;14.07;;;6.63;;
55146;SDS011;41039;49.830;23.988;2022-10-04T22:03:23;11.65;;;7.47;;
55146;SDS011;41039;49.830;23.988;2022-10-04T22:05:49;10.90;;;6.60;;
55146;SDS011;41039;49.830;23.988;2022-10-04T22:08:14;10.20;;;6.82;;
55146;SDS011;41039;49.830;23.988;2022-10-04T22:10:39;10.20;;;6.47;;
55146;SDS011;41039;49.830;23.988;2022-10-04T22:13:04;11.98;;;6.47;;
55146;SDS011;41039;49.830;23.988;2022-10-04T22:15:29;10.90;;;6.03;;
55146;SDS011;41039;49.830;23.988;2022-10-04T22:17:55;10.40;;;6.78;;
55146;SDS011;41039;49.830;23.988;2022-10-04T22:20:21;14.27;;;6.90;;
55146;SDS011;41039;49.830;23.988;2022-10-04T22:22:46;9.27;;;5.90;;
55146;SDS011;41039;49.830;23.988;2022-10-04T22:25:12;10.73;;;6.07;;
55146;SDS011;41039;49.830;23.988;2022-10-04T22:27:38;13.55;;;7.20;;
55146;SDS011;41039;49.830;23.988;2022-10-04T22:30:05;18.55;;;8.30;;
55146;SDS011;41039;49.830;23.988;2022-10-04T22:32:31;11.23;;;7.18;;
55146;SDS011;41039;49.830;23.988;2022-10-04T22:35:00;14.27;;;7.05;;
55146;SDS011;41039;49.830;23.988;2022-10-04T22:37:26;12.85;;;7.57;;
55146;SDS011;41039;49.830;23.988;2022-10-04T22:39:53;12.57;;;8.15;;
55146;SDS011;41039;49.830;23.988;2022-10-04T22:42:19;12.18;;;7.45;;
55146;SDS011;41039;49.830;23.988;2022-10-04T22:44:45;13.35;;;7.35;;
55146;SDS011;41039;49.830;23.988;2022-10-04T22:47:11;11.10;;;7.57;;
55146;SDS011;41039;49.830;23.988;2022-10-04T22:49:37;11.88;;;7.72;;
55146;SDS011;41039;49.830;23.988;2022-10-04T22:52:16;10.75;;;7.00;;
55146;SDS011;41039;49.830;23.988;2022-10-04T22:54:43;13.52;;;6.72;;
55146;SDS011;41039;49.830;23.988;2022-10-04T22:57:08;11.88;;;6.95;;
55146;SDS011;41039;49.830;23.988;2022-10-04T22:59:38;13.23;;;7.00;;
55146;SDS011;41039;49.830;23.988;2022-10-04T23:02:11;11.95;;;7.40;;
55146;SDS011;41039;49.830;23.988;2022-10-04T23:04:37;12.40;;;7.28;;
55146;SDS011;41039;49.830;23.988;2022-10-04T23:07:03;10.75;;;6.97;;
55146;SDS011;41039;49.830;23.988;2022-10-04T23:09:29;11.75;;;7.97;;
55146;SDS011;41039;49.830;23.988;2022-10-04T23:11:54;13.02;;;9.68;;
55146;SDS011;41039;49.830;23.988;2022-10-04T23:14:19;13.50;;;9.50;;
55146;SDS011;41039;49.830;23.988;2022-10-04T23:16:44;17.35;;;9.75;;
55146;SDS011;41039;49.830;23.988;2022-10-04T23:19:16;16.00;;;10.38;;
55146;SDS011;41039;49.830;23.988;2022-10-04T23:21:48;18.50;;;10.75;;
55146;SDS011;41039;49.830;23.988;2022-10-04T23:24:17;15.05;;;10.52;;
55146;SDS011;41039;49.830;23.988;2022-10-04T23:26:47;15.98;;;10.65;;
55146;SDS011;41039;49.830;23.988;2022-10-04T23:29:25;17.40;;;11.18;;
55146;SDS011;41039;49.830;23.988;2022-10-04T23:31:51;17.30;;;10.93;;
55146;SDS011;41039;49.830;23.988;2022-10-04T23:34:18;15.25;;;11.10;;
55146;SDS011;41039;49.830;23.988;2022-10-04T23:36:44;26.05;;;11.65;;
55146;SDS011;41039;49.830;23.988;2022-10-04T23:39:11;19.98;;;12.10;;
55146;SDS011;41039;49.830;23.988;2022-10-04T23:41:37;18.25;;;10.73;;
55146;SDS011;41039;49.830;23.988;2022-10-04T23:44:04;16.27;;;9.88;;
55146;SDS011;41039;49.830;23.988;2022-10-04T23:46:32;17.23;;;9.73;;
55146;SDS011;41039;49.830;23.988;2022-10-04T23:48:57;19.70;;;10.70;;
55146;SDS011;41039;49.830;23.988;2022-10-04T23:51:22;14.88;;;9.82;;
55146;SDS011;41039;49.830;23.988;2022-10-04T23:53:47;13.23;;;10.65;;
55146;SDS011;41039;49.830;23.988;2022-10-04T23:56:18;15.82;;;10.65;;
55146;SDS011;41039;49.830;23.988;2022-10-04T23:58:44;15.07;;;10.45;;
